createdAt,value
2023-04-19T00:01:55.110Z,50.29
2023-04-19T00:04:21.670Z,49.64
2023-04-19T00:06:48.341Z,49.43
2023-04-19T00:09:14.574Z,47.35
2023-04-19T00:11:40.817Z,47.57
2023-04-19T00:14:07.065Z,49.82
2023-04-19T00:16:33.331Z,50.59
2023-04-19T00:18:59.583Z,50.98
2023-04-19T00:21:25.825Z,51.99
2023-04-19T00:23:52.051Z,51.36
2023-04-19T00:26:18.282Z,51.58
2023-04-19T00:28:44.511Z,52.78
2023-04-19T00:31:10.797Z,53.42
2023-04-19T00:33:37.033Z,54.37
2023-04-19T00:36:03.308Z,53.38
2023-04-19T00:38:29.549Z,53.33
2023-04-19T00:40:55.810Z,53.24
2023-04-19T00:43:22.099Z,53.03
2023-04-19T00:45:48.431Z,54.80
2023-04-19T00:48:14.704Z,54.36
2023-04-19T00:50:40.948Z,52.79
2023-04-19T00:53:07.182Z,51.75
2023-04-19T00:55:33.460Z,49.56
2023-04-19T00:57:59.748Z,50.04
2023-04-19T01:00:26.015Z,50.71
2023-04-19T01:02:52.448Z,51.93
2023-04-19T01:08:03.135Z,52.82
2023-04-19T01:10:29.438Z,53.62
2023-04-19T01:12:55.685Z,55.31
2023-04-19T01:15:21.959Z,55.97
2023-04-19T01:17:48.253Z,56.11
2023-04-19T01:20:14.549Z,56.63
2023-04-19T01:22:40.798Z,55.82
2023-04-19T01:25:07.044Z,55.26
2023-04-19T01:27:33.265Z,54.44
2023-04-19T01:29:59.542Z,55.96
2023-04-19T01:32:25.854Z,55.54
2023-04-19T01:34:52.126Z,54.54
2023-04-19T01:37:18.376Z,54.71
2023-04-19T01:39:44.599Z,54.33
2023-04-19T01:42:10.856Z,55.02
2023-04-19T01:44:37.080Z,54.65
2023-04-19T01:47:03.370Z,54.80
2023-04-19T01:49:29.712Z,54.05
2023-04-19T01:51:55.933Z,53.94
2023-04-19T01:54:22.173Z,53.01
2023-04-19T01:56:48.424Z,52.46
2023-04-19T01:59:14.679Z,52.25
2023-04-19T02:01:40.999Z,52.88
2023-04-19T02:04:07.376Z,54.05
2023-04-19T02:06:33.625Z,55.12
2023-04-19T02:08:59.869Z,55.76
2023-04-19T02:11:26.098Z,55.82
2023-04-19T02:13:53.203Z,55.24
2023-04-19T02:16:19.534Z,54.41
2023-04-19T02:18:45.865Z,53.82
2023-04-19T02:21:12.092Z,54.49
2023-04-19T02:23:38.375Z,54.35
2023-04-19T02:26:04.624Z,54.54
2023-04-19T02:28:30.887Z,54.45
2023-04-19T02:30:57.129Z,57.95
2023-04-19T02:33:23.383Z,58.65
2023-04-19T02:35:49.620Z,58.14
2023-04-19T02:38:15.878Z,57.30
2023-04-19T02:40:42.119Z,55.35
2023-04-19T02:43:08.369Z,54.58
2023-04-19T02:45:34.629Z,54.14
2023-04-19T02:48:00.918Z,54.04
2023-04-19T02:50:27.219Z,55.86
2023-04-19T02:52:53.521Z,55.36
2023-04-19T02:55:19.760Z,56.25
2023-04-19T02:57:46.004Z,55.87
2023-04-19T03:00:12.223Z,56.00
2023-04-19T03:02:38.564Z,54.87
2023-04-19T03:05:04.854Z,54.24
2023-04-19T03:07:31.092Z,53.60
2023-04-19T03:09:57.341Z,54.94
2023-04-19T03:12:23.596Z,55.04
2023-04-19T03:14:49.823Z,53.83
2023-04-19T03:17:16.048Z,53.46
2023-04-19T03:19:42.277Z,52.95
2023-04-19T03:22:08.530Z,53.34
2023-04-19T03:24:37.638Z,55.10
2023-04-19T03:27:04.300Z,55.45
2023-04-19T03:29:30.526Z,54.62
2023-04-19T03:31:56.747Z,54.16
2023-04-19T03:34:22.992Z,53.78
2023-04-19T03:36:49.254Z,53.69
2023-04-19T03:39:15.483Z,53.76
2023-04-19T03:41:41.698Z,53.84
2023-04-19T03:44:07.917Z,54.55
2023-04-19T03:46:34.193Z,55.20
2023-04-19T03:49:00.520Z,54.56
2023-04-19T03:51:26.823Z,54.24
2023-04-19T03:53:53.060Z,54.27
2023-04-19T03:56:19.308Z,54.09
2023-04-19T03:58:45.526Z,53.65
2023-04-19T04:01:11.803Z,54.28
2023-04-19T04:03:38.398Z,53.84
2023-04-19T04:06:04.760Z,53.31
2023-04-19T04:08:31.003Z,53.52
2023-04-19T04:10:57.224Z,54.10
2023-04-19T04:13:23.486Z,54.63
2023-04-19T04:15:49.878Z,55.59
2023-04-19T04:18:16.197Z,55.17
2023-04-19T04:20:42.421Z,55.00
2023-04-19T04:23:08.666Z,55.91
2023-04-19T04:25:34.917Z,56.38
2023-04-19T04:28:01.179Z,57.06
2023-04-19T04:30:28.019Z,56.90
2023-04-19T04:32:54.415Z,56.65
2023-04-19T04:35:20.737Z,55.57
2023-04-19T04:37:46.968Z,54.92
2023-04-19T04:40:13.256Z,54.29
2023-04-19T04:42:39.562Z,53.82
2023-04-19T04:45:05.790Z,51.39
2023-04-19T04:47:32.079Z,50.55
2023-04-19T04:49:58.332Z,50.01
2023-04-19T04:52:24.682Z,49.78
2023-04-19T04:54:50.943Z,50.40
2023-04-19T04:57:17.178Z,52.29
2023-04-19T04:59:43.449Z,53.76
2023-04-19T05:02:09.724Z,54.91
2023-04-19T05:04:36.168Z,54.85
2023-04-19T05:07:02.447Z,54.16
2023-04-19T05:09:28.682Z,52.86
2023-04-19T05:11:54.993Z,51.31
2023-04-19T05:14:21.290Z,50.41
2023-04-19T05:16:47.593Z,51.21
2023-04-19T05:19:13.935Z,51.27
2023-04-19T05:21:40.163Z,50.63
2023-04-19T05:24:06.444Z,51.15
2023-04-19T05:26:32.763Z,52.31
2023-04-19T05:28:59.064Z,52.29
2023-04-19T05:31:25.342Z,52.52
2023-04-19T05:33:51.693Z,52.04
2023-04-19T05:36:17.907Z,50.55
2023-04-19T05:38:44.150Z,50.34
2023-04-19T05:41:10.408Z,50.50
2023-04-19T05:43:36.665Z,50.50
2023-04-19T05:46:02.919Z,49.57
2023-04-19T05:48:29.165Z,48.79
2023-04-19T05:50:55.392Z,47.69
2023-04-19T05:53:21.651Z,49.50
2023-04-19T05:55:47.894Z,48.87
2023-04-19T05:58:14.151Z,47.77
2023-04-19T06:00:42.200Z,46.66
2023-04-19T06:03:08.715Z,46.92
2023-04-19T06:05:35.216Z,45.36
2023-04-19T06:08:02.907Z,45.33
2023-04-19T06:10:40.412Z,44.78
2023-04-19T06:13:14.972Z,44.81
2023-04-19T06:15:41.236Z,45.71
2023-04-19T06:18:07.537Z,45.41
2023-04-19T06:20:33.779Z,46.85
2023-04-19T06:23:00.048Z,47.29
2023-04-19T06:25:26.364Z,44.77
2023-04-19T06:27:52.590Z,45.85
2023-04-19T06:30:21.594Z,47.02
2023-04-19T06:32:47.894Z,47.84
2023-04-19T06:35:14.165Z,45.99
2023-04-19T06:37:40.493Z,47.25
2023-04-19T06:40:06.805Z,45.33
2023-04-19T06:42:33.019Z,47.52
2023-04-19T06:44:59.303Z,48.02
2023-04-19T06:47:25.593Z,47.45
2023-04-19T06:49:51.876Z,45.26
2023-04-19T06:52:18.123Z,46.38
2023-04-19T06:54:44.363Z,46.97
2023-04-19T06:57:10.607Z,47.55
2023-04-19T06:59:36.856Z,47.74
2023-04-19T07:02:03.227Z,47.53
2023-04-19T07:04:29.639Z,46.87
2023-04-19T07:06:55.942Z,44.89
2023-04-19T07:09:22.172Z,45.18
2023-04-19T07:11:48.421Z,46.46
2023-04-19T07:14:14.987Z,47.81
2023-04-19T07:16:41.568Z,47.66
2023-04-19T07:19:07.830Z,48.63
2023-04-19T07:21:34.053Z,47.68
2023-04-19T07:24:00.266Z,46.67
2023-04-19T07:26:26.493Z,47.99
2023-04-19T07:28:52.847Z,46.52
2023-04-19T07:31:19.254Z,45.70
2023-04-19T07:33:45.491Z,47.29
2023-04-19T07:36:11.733Z,46.44
2023-04-19T07:38:37.954Z,46.89
2023-04-19T07:41:05.183Z,45.43
2023-04-19T07:43:31.417Z,48.00
2023-04-19T07:45:57.766Z,49.85
2023-04-19T07:48:24.014Z,47.81
2023-04-19T07:50:50.264Z,49.76
2023-04-19T07:53:16.594Z,48.66
2023-04-19T07:55:42.890Z,50.68
2023-04-19T07:58:09.198Z,48.65
2023-04-19T08:00:35.471Z,44.71
2023-04-19T08:03:02.062Z,47.67
2023-04-19T08:05:28.773Z,46.64
2023-04-19T08:07:55.089Z,47.16
2023-04-19T08:10:22.447Z,45.72
2023-04-19T08:13:04.321Z,46.95
2023-04-19T08:18:00.462Z,47.24
2023-04-19T08:20:26.761Z,47.38
2023-04-19T08:22:53.097Z,50.81
2023-04-19T08:25:19.361Z,48.47
2023-04-19T08:27:45.608Z,48.21
2023-04-19T08:30:13.033Z,46.42
2023-04-19T08:32:39.298Z,45.77
2023-04-19T08:35:05.588Z,46.00
2023-04-19T08:37:31.833Z,45.65
2023-04-19T08:39:58.074Z,47.53
2023-04-19T08:42:35.638Z,48.38
2023-04-19T08:45:26.276Z,48.24
2023-04-19T08:47:59.664Z,48.66
2023-04-19T08:50:33.260Z,46.46
2023-04-19T08:53:21.045Z,46.24
2023-04-19T08:56:08.709Z,46.18
2023-04-19T08:58:56.906Z,47.22
2023-04-19T09:01:33.664Z,49.62
2023-04-19T09:04:10.244Z,47.51
2023-04-19T09:06:47.796Z,48.17
2023-04-19T09:09:28.882Z,48.27
2023-04-19T09:12:00.216Z,52.05
2023-04-19T09:14:26.551Z,46.27
2023-04-19T09:16:52.803Z,48.84
2023-04-19T09:19:24.155Z,47.16
2023-04-19T09:21:51.336Z,48.44
2023-04-19T09:24:17.602Z,47.19
2023-04-19T09:26:43.831Z,47.81
2023-04-19T09:29:11.112Z,47.05
2023-04-19T09:34:07.467Z,46.36
2023-04-19T09:36:33.749Z,48.02
2023-04-19T09:39:00.153Z,46.78
2023-04-19T09:41:26.377Z,45.44
2023-04-19T09:44:11.761Z,45.94
2023-04-19T09:46:38.902Z,48.07
2023-04-19T09:49:17.120Z,47.46
2023-04-19T09:51:47.846Z,46.46
2023-04-19T09:54:14.085Z,47.42
2023-04-19T09:56:40.327Z,47.20
2023-04-19T09:59:19.362Z,46.26
2023-04-19T10:01:46.438Z,45.62
2023-04-19T10:04:25.921Z,48.75
2023-04-19T10:07:25.162Z,47.58
2023-04-19T10:09:53.119Z,47.72
2023-04-19T10:12:46.268Z,46.18
2023-04-19T10:15:07.382Z,45.44
2023-04-19T10:17:33.786Z,44.75
2023-04-19T10:20:00.048Z,44.76
2023-04-19T10:22:26.276Z,44.94
2023-04-19T10:24:52.507Z,46.42
2023-04-19T10:27:18.799Z,47.17
2023-04-19T10:29:45.035Z,47.12
2023-04-19T10:32:11.383Z,49.72
2023-04-19T10:34:37.693Z,47.84
2023-04-19T10:37:04.245Z,47.32
2023-04-19T10:39:30.475Z,49.34
2023-04-19T10:41:56.823Z,48.20
2023-04-19T10:44:23.080Z,49.03
2023-04-19T10:46:49.343Z,48.78
2023-04-19T10:49:15.825Z,48.62
2023-04-19T10:51:42.422Z,51.94
2023-04-19T10:54:08.682Z,48.85
2023-04-19T10:56:34.965Z,49.91
2023-04-19T10:59:01.258Z,51.17
2023-04-19T11:01:27.550Z,48.03
2023-04-19T11:03:53.973Z,48.89
2023-04-19T11:06:20.679Z,52.20
2023-04-19T11:08:46.934Z,49.29
2023-04-19T11:11:13.168Z,48.50
2023-04-19T11:13:39.464Z,49.60
2023-04-19T11:16:05.751Z,46.48
2023-04-19T11:18:32.074Z,49.19
2023-04-19T11:20:58.363Z,49.19
2023-04-19T11:23:24.618Z,48.19
2023-04-19T11:25:50.895Z,46.70
2023-04-19T11:28:17.134Z,49.42
2023-04-19T11:30:43.362Z,47.96
2023-04-19T11:33:09.615Z,48.22
2023-04-19T11:35:35.854Z,48.28
2023-04-19T11:38:02.079Z,49.00
2023-04-19T11:40:28.321Z,48.09
2023-04-19T11:42:54.557Z,47.99
2023-04-19T11:45:28.738Z,51.81
2023-04-19T11:47:57.087Z,46.69
2023-04-19T11:50:23.383Z,45.44
2023-04-19T11:52:49.625Z,47.47
2023-04-19T11:55:15.876Z,47.82
2023-04-19T11:57:42.127Z,47.21
2023-04-19T12:00:08.576Z,42.01
2023-04-19T12:02:35.150Z,47.15
2023-04-19T12:05:01.773Z,47.12
2023-04-19T12:07:28.143Z,47.66
2023-04-19T12:09:54.427Z,49.37
2023-04-19T12:12:20.731Z,47.93
2023-04-19T12:14:46.959Z,47.26
2023-04-19T12:17:13.222Z,49.83
2023-04-19T12:19:39.464Z,44.57
2023-04-19T12:22:05.734Z,42.16
2023-04-19T12:24:32.031Z,41.95
2023-04-19T12:26:58.911Z,40.58
2023-04-19T12:29:26.097Z,44.08
2023-04-19T12:31:52.422Z,43.35
2023-04-19T12:34:18.702Z,47.07
2023-04-19T12:36:44.966Z,44.37
2023-04-19T12:39:11.197Z,43.47
2023-04-19T12:41:37.438Z,45.10
2023-04-19T12:44:03.737Z,43.15
2023-04-19T12:46:30.040Z,44.51
2023-04-19T12:48:56.381Z,39.34
2023-04-19T12:51:22.650Z,37.31
2023-04-19T12:53:48.881Z,37.03
2023-04-19T12:56:15.113Z,39.72
2023-04-19T12:58:41.378Z,36.20
2023-04-19T13:01:07.694Z,40.31
2023-04-19T13:03:34.152Z,38.28
2023-04-19T13:06:00.437Z,36.61
2023-04-19T13:08:43.233Z,40.84
2023-04-19T13:11:11.624Z,38.19
2023-04-19T13:13:37.854Z,40.45
2023-04-19T13:16:04.099Z,33.72
2023-04-19T13:18:30.429Z,40.04
2023-04-19T13:20:56.679Z,41.27
2023-04-19T13:23:22.937Z,37.56
2023-04-19T13:25:49.196Z,35.33
2023-04-19T13:28:15.462Z,35.47
2023-04-19T13:30:41.709Z,31.87
2023-04-19T13:33:09.103Z,31.39
2023-04-19T13:35:35.959Z,30.86
2023-04-19T13:38:02.195Z,33.49
2023-04-19T13:40:28.446Z,33.44
2023-04-19T13:42:54.753Z,35.14
2023-04-19T13:45:20.990Z,33.31
2023-04-19T13:47:47.339Z,31.00
2023-04-19T13:50:13.663Z,31.62
2023-04-19T13:52:39.904Z,32.42
2023-04-19T13:55:06.165Z,31.15
2023-04-19T13:57:32.429Z,32.48
2023-04-19T13:59:58.672Z,36.48
2023-04-19T14:02:25.092Z,36.92
2023-04-19T14:04:51.478Z,32.42
2023-04-19T14:07:17.713Z,33.07
2023-04-19T14:09:43.966Z,30.57
2023-04-19T14:12:10.207Z,35.86
2023-04-19T14:14:36.450Z,33.20
2023-04-19T14:17:02.692Z,31.54
2023-04-19T14:19:28.956Z,31.75
2023-04-19T14:21:55.258Z,36.50
2023-04-19T14:24:21.524Z,33.44
2023-04-19T14:26:56.826Z,32.20
2023-04-19T14:29:33.385Z,33.38
2023-04-19T14:32:05.134Z,30.98
2023-04-19T14:34:36.856Z,29.92
2023-04-19T14:37:03.094Z,29.28
2023-04-19T14:39:29.336Z,31.52
2023-04-19T14:41:55.644Z,30.19
2023-04-19T14:44:21.904Z,31.94
2023-04-19T14:46:48.156Z,30.15
2023-04-19T14:49:14.651Z,29.90
2023-04-19T14:51:41.073Z,27.90
2023-04-19T14:54:07.352Z,27.42
2023-04-19T14:56:33.650Z,28.23
2023-04-19T14:58:59.901Z,31.68
2023-04-19T15:01:26.305Z,32.94
2023-04-19T15:03:52.851Z,32.81
2023-04-19T15:06:19.276Z,35.22
2023-04-19T15:08:45.585Z,34.94
2023-04-19T15:11:11.835Z,34.81
2023-04-19T15:13:38.105Z,36.31
2023-04-19T15:16:04.452Z,36.95
2023-04-19T15:18:30.712Z,35.58
2023-04-19T15:20:56.973Z,36.79
2023-04-19T15:23:23.215Z,36.52
2023-04-19T15:25:49.473Z,37.11
2023-04-19T15:28:15.754Z,37.30
2023-04-19T15:30:42.048Z,36.17
2023-04-19T15:33:08.332Z,36.88
2023-04-19T15:35:34.635Z,36.43
2023-04-19T15:38:00.907Z,36.54
2023-04-19T15:40:27.180Z,35.92
2023-04-19T15:42:53.424Z,37.53
2023-04-19T15:45:19.703Z,36.13
2023-04-19T15:47:46.030Z,36.14
2023-04-19T15:50:12.341Z,36.66
2023-04-19T15:52:38.608Z,37.33
2023-04-19T15:55:04.866Z,39.11
2023-04-19T15:57:31.151Z,34.37
2023-04-19T15:59:57.436Z,35.71
2023-04-19T16:02:23.899Z,36.60
2023-04-19T16:04:50.449Z,36.41
2023-04-19T16:07:16.712Z,36.08
2023-04-19T16:09:42.946Z,37.32
2023-04-19T16:12:09.203Z,35.26
2023-04-19T16:14:35.465Z,37.40
2023-04-19T16:17:01.755Z,37.73
2023-04-19T16:19:28.011Z,36.85
2023-04-19T16:21:54.259Z,36.45
2023-04-19T16:24:20.485Z,37.47
2023-04-19T16:26:46.773Z,37.22
2023-04-19T16:29:13.009Z,38.99
2023-04-19T16:31:39.324Z,40.82
2023-04-19T16:34:05.627Z,40.26
2023-04-19T16:36:31.852Z,41.90
2023-04-19T16:38:58.131Z,40.59
2023-04-19T16:41:24.369Z,40.84
2023-04-19T16:43:50.627Z,41.19
2023-04-19T16:46:16.950Z,39.43
2023-04-19T16:48:43.232Z,40.26
2023-04-19T16:51:09.482Z,41.94
2023-04-19T16:53:35.721Z,39.60
2023-04-19T16:56:01.968Z,41.04
2023-04-19T16:58:28.264Z,40.45
2023-04-19T17:00:54.576Z,39.03
2023-04-19T17:03:20.935Z,39.28
2023-04-19T17:05:47.299Z,39.24
2023-04-19T17:08:13.565Z,39.40
2023-04-19T17:10:39.975Z,37.05
2023-04-19T17:13:06.226Z,38.99
2023-04-19T17:15:32.505Z,36.80
2023-04-19T17:17:58.790Z,38.01
2023-04-19T17:20:25.071Z,38.52
2023-04-19T17:22:53.351Z,37.17
2023-04-19T17:25:21.693Z,35.60
2023-04-19T17:27:48.526Z,37.58
2023-04-19T17:30:14.798Z,38.53
2023-04-19T17:32:41.122Z,38.06
2023-04-19T17:35:07.411Z,39.10
2023-04-19T17:37:33.657Z,37.63
2023-04-19T17:39:59.886Z,38.17
2023-04-19T17:42:26.197Z,37.42
2023-04-19T17:44:52.529Z,38.90
2023-04-19T17:47:18.806Z,37.75
2023-04-19T17:49:45.124Z,36.67
2023-04-19T17:52:11.386Z,38.05
2023-04-19T17:54:37.670Z,38.13
2023-04-19T17:57:03.931Z,39.05
2023-04-19T17:59:30.194Z,38.94
2023-04-19T18:01:56.529Z,40.78
2023-04-19T18:04:22.992Z,41.06
2023-04-19T18:06:49.525Z,40.74
2023-04-19T18:09:16.155Z,40.36
2023-04-19T18:11:42.572Z,40.99
2023-04-19T18:14:08.827Z,40.52
2023-04-19T18:16:35.069Z,42.12
2023-04-19T18:19:01.354Z,41.07
2023-04-19T18:21:27.596Z,42.55
2023-04-19T18:23:53.840Z,42.17
2023-04-19T18:26:20.287Z,41.36
2023-04-19T18:28:46.582Z,42.08
2023-04-19T18:31:12.836Z,42.67
2023-04-19T18:33:39.154Z,42.77
2023-04-19T18:36:05.485Z,42.56
2023-04-19T18:38:31.757Z,43.19
2023-04-19T18:40:58.058Z,43.15
2023-04-19T18:43:24.549Z,42.62
2023-04-19T18:45:50.843Z,43.34
2023-04-19T18:48:17.206Z,43.05
2023-04-19T18:50:43.593Z,43.56
2023-04-19T18:53:09.840Z,43.57
2023-04-19T18:55:36.114Z,44.65
2023-04-19T18:58:02.395Z,44.47
2023-04-19T19:00:28.614Z,44.93
2023-04-19T19:02:55.443Z,45.28
2023-04-19T19:05:21.976Z,44.71
2023-04-19T19:07:48.491Z,44.91
2023-04-19T19:10:19.074Z,44.80
2023-04-19T19:12:47.846Z,45.06
2023-04-19T19:15:14.097Z,44.14
2023-04-19T19:17:40.785Z,44.37
2023-04-19T19:20:07.304Z,44.03
2023-04-19T19:22:34.054Z,43.24
2023-04-19T19:25:00.467Z,43.82
2023-04-19T19:27:26.729Z,43.68
2023-04-19T19:29:53.002Z,43.18
2023-04-19T19:32:19.318Z,40.79
2023-04-19T19:34:54.766Z,43.25
2023-04-19T19:37:21.622Z,45.43
2023-04-19T19:39:47.893Z,46.44
2023-04-19T19:42:14.288Z,44.77
2023-04-19T19:44:40.553Z,44.79
2023-04-19T19:47:10.359Z,44.44
2023-04-19T19:49:51.875Z,44.13
2023-04-19T19:52:23.351Z,44.60
2023-04-19T19:54:49.628Z,45.92
2023-04-19T19:59:51.570Z,46.04
2023-04-19T20:02:22.000Z,47.28
2023-04-19T20:04:48.814Z,47.28
2023-04-19T20:09:44.354Z,48.03
2023-04-19T20:12:10.618Z,47.96
2023-04-19T20:14:36.846Z,46.07
2023-04-19T20:17:03.081Z,43.80
2023-04-19T20:19:29.317Z,45.84
2023-04-19T20:21:55.570Z,46.42
2023-04-19T20:24:21.832Z,47.67
2023-04-19T20:26:48.078Z,48.24
2023-04-19T20:29:14.516Z,47.56
2023-04-19T20:31:41.000Z,46.48
2023-04-19T20:34:07.264Z,44.26
2023-04-19T20:36:33.542Z,42.92
2023-04-19T20:38:59.870Z,42.49
2023-04-19T20:41:26.122Z,43.45
2023-04-19T20:43:52.365Z,44.45
2023-04-19T20:46:18.721Z,45.79
2023-04-19T20:48:45.016Z,47.60
2023-04-19T20:51:11.252Z,47.95
2023-04-19T20:53:37.507Z,46.58
2023-04-19T20:56:03.809Z,46.87
2023-04-19T20:58:30.045Z,46.51
2023-04-19T21:00:56.320Z,46.51
2023-04-19T21:03:22.891Z,46.93
2023-04-19T21:05:49.233Z,49.00
2023-04-19T21:08:15.491Z,49.49
2023-04-19T21:10:41.756Z,48.03
2023-04-19T21:13:08.022Z,47.92
2023-04-19T21:15:34.327Z,48.15
2023-04-19T21:18:00.652Z,48.15
2023-04-19T21:20:26.909Z,48.21
2023-04-19T21:22:53.109Z,48.77
2023-04-19T21:25:19.358Z,50.84
2023-04-19T21:27:45.610Z,49.49
2023-04-19T21:30:11.851Z,48.86
2023-04-19T21:32:38.239Z,49.05
2023-04-19T21:35:04.532Z,49.31
2023-04-19T21:37:30.756Z,46.68
2023-04-19T21:39:56.971Z,47.03
2023-04-19T21:42:23.192Z,48.11
2023-04-19T21:44:49.444Z,49.48
2023-04-19T21:47:15.719Z,49.98
2023-04-19T21:49:41.962Z,51.21
2023-04-19T21:52:08.232Z,50.86
2023-04-19T21:54:34.848Z,52.25
2023-04-19T21:57:01.156Z,51.51
2023-04-19T21:59:27.389Z,50.72
2023-04-19T22:01:54.147Z,50.87
2023-04-19T22:04:20.615Z,49.46
2023-04-19T22:06:46.908Z,48.54
2023-04-19T22:09:13.142Z,49.32
2023-04-19T22:11:39.392Z,51.13
2023-04-19T22:14:05.629Z,51.02
2023-04-19T22:16:31.928Z,50.92
2023-04-19T22:18:58.179Z,50.87
2023-04-19T22:21:24.425Z,52.92
2023-04-19T22:23:50.675Z,52.22
2023-04-19T22:26:16.903Z,50.47
2023-04-19T22:28:43.124Z,48.50
2023-04-19T22:31:09.381Z,48.20
2023-04-19T22:33:35.614Z,47.34
2023-04-19T22:36:01.845Z,46.62
2023-04-19T22:38:28.100Z,47.09
2023-04-19T22:40:54.385Z,47.41
2023-04-19T22:43:20.697Z,48.13
2023-04-19T22:45:46.988Z,49.56
2023-04-19T22:48:13.299Z,49.25
2023-04-19T22:50:39.573Z,49.95
2023-04-19T22:53:05.815Z,50.03
2023-04-19T22:55:32.066Z,49.97
2023-04-19T22:57:58.320Z,49.67
2023-04-19T23:00:24.578Z,50.89
2023-04-19T23:02:51.054Z,50.88
2023-04-19T23:05:17.453Z,51.90
2023-04-19T23:07:43.700Z,51.25
2023-04-19T23:10:09.952Z,49.38
2023-04-19T23:12:36.205Z,49.88
2023-04-19T23:15:02.429Z,50.43
2023-04-19T23:17:28.692Z,50.15
2023-04-19T23:19:54.972Z,50.43
2023-04-19T23:22:21.268Z,49.76
2023-04-19T23:24:47.591Z,48.81
2023-04-19T23:27:13.833Z,50.64
2023-04-19T23:29:40.091Z,51.80
2023-04-19T23:32:06.361Z,52.17
2023-04-19T23:34:32.624Z,50.58
2023-04-19T23:36:58.872Z,52.12
2023-04-19T23:39:25.100Z,52.00
2023-04-19T23:41:51.338Z,53.82
2023-04-19T23:44:17.587Z,54.32
2023-04-19T23:46:43.929Z,54.15
2023-04-19T23:49:10.236Z,55.32
2023-04-19T23:51:36.517Z,55.35
2023-04-19T23:54:02.779Z,56.58
2023-04-19T23:56:29.015Z,57.35
2023-04-19T23:58:55.309Z,59.39
